Terminal Aerodrome Forecast
Issued by NWS

Home | Current Version | Previous Version | Text Only | Print | Product List | Glossary On
Versions: 1 2 3 4 5 6 7 8 9 10 11 12 13 14 15 16 17 18 19 20 21 22 23 24
000
FTUS45 KGJT 291132
TAFMTJ
TAF
KMTJ 291132Z 2912/3012 15005KT P6SM BKN200
     FM291800 35004KT P6SM FEW100 OVC200
     FM300100 14005KT P6SM VCSH SCT080 OVC120
     FM300900 14005KT P6SM VCSH SCT040 OVC060=

USA.gov is the U.S. government's official web portal to all federal, state and local government web resources and services.